sensor_id;sensor_type;location;lat;lon;timestamp;P1;durP1;ratioP1;P2;durP2;ratioP2
16866;SDS011;8550;52.596;13.320;2023-05-07T00:00:45;9.75;;;4.80;;
16866;SDS011;8550;52.596;13.320;2023-05-07T00:05:48;10.45;;;5.78;;
16866;SDS011;8550;52.596;13.320;2023-05-07T00:10:51;10.83;;;5.40;;
16866;SDS011;8550;52.596;13.320;2023-05-07T00:15:53;10.23;;;4.77;;
16866;SDS011;8550;52.596;13.320;2023-05-07T00:20:55;10.98;;;5.78;;
16866;SDS011;8550;52.596;13.320;2023-05-07T00:25:59;8.60;;;5.05;;
16866;SDS011;8550;52.596;13.320;2023-05-07T00:31:01;14.10;;;5.30;;
16866;SDS011;8550;52.596;13.320;2023-05-07T00:36:03;9.82;;;5.15;;
16866;SDS011;8550;52.596;13.320;2023-05-07T00:41:06;11.15;;;5.60;;
16866;SDS011;8550;52.596;13.320;2023-05-07T00:46:08;9.07;;;5.30;;
16866;SDS011;8550;52.596;13.320;2023-05-07T00:51:11;10.38;;;5.40;;
16866;SDS011;8550;52.596;13.320;2023-05-07T00:56:15;9.98;;;5.18;;
16866;SDS011;8550;52.596;13.320;2023-05-07T01:01:17;9.37;;;5.40;;
16866;SDS011;8550;52.596;13.320;2023-05-07T01:06:20;11.63;;;6.43;;
16866;SDS011;8550;52.596;13.320;2023-05-07T01:11:26;8.65;;;4.72;;
16866;SDS011;8550;52.596;13.320;2023-05-07T01:16:28;9.05;;;5.35;;
16866;SDS011;8550;52.596;13.320;2023-05-07T01:21:31;7.50;;;4.33;;
16866;SDS011;8550;52.596;13.320;2023-05-07T01:26:36;8.48;;;4.82;;
16866;SDS011;8550;52.596;13.320;2023-05-07T01:31:38;10.93;;;5.22;;
16866;SDS011;8550;52.596;13.320;2023-05-07T01:36:43;10.13;;;5.07;;
16866;SDS011;8550;52.596;13.320;2023-05-07T01:41:46;10.15;;;5.15;;
16866;SDS011;8550;52.596;13.320;2023-05-07T01:46:48;9.27;;;5.07;;
16866;SDS011;8550;52.596;13.320;2023-05-07T01:51:51;16.23;;;5.40;;
16866;SDS011;8550;52.596;13.320;2023-05-07T01:56:55;12.07;;;5.37;;
16866;SDS011;8550;52.596;13.320;2023-05-07T02:01:57;11.02;;;6.22;;
16866;SDS011;8550;52.596;13.320;2023-05-07T02:07:00;10.55;;;5.30;;
16866;SDS011;8550;52.596;13.320;2023-05-07T02:12:04;9.53;;;4.80;;
16866;SDS011;8550;52.596;13.320;2023-05-07T02:17:07;8.82;;;5.05;;
16866;SDS011;8550;52.596;13.320;2023-05-07T02:22:09;10.57;;;5.28;;
16866;SDS011;8550;52.596;13.320;2023-05-07T02:27:15;9.10;;;5.03;;
16866;SDS011;8550;52.596;13.320;2023-05-07T02:32:17;8.95;;;5.40;;
16866;SDS011;8550;52.596;13.320;2023-05-07T02:37:19;8.32;;;4.63;;
16866;SDS011;8550;52.596;13.320;2023-05-07T02:42:22;9.13;;;4.70;;
16866;SDS011;8550;52.596;13.320;2023-05-07T02:47:25;7.50;;;4.23;;
16866;SDS011;8550;52.596;13.320;2023-05-07T02:52:29;10.40;;;4.00;;
16866;SDS011;8550;52.596;13.320;2023-05-07T02:57:32;8.02;;;4.60;;
16866;SDS011;8550;52.596;13.320;2023-05-07T03:02:34;9.23;;;4.43;;
16866;SDS011;8550;52.596;13.320;2023-05-07T03:07:37;8.90;;;4.70;;
16866;SDS011;8550;52.596;13.320;2023-05-07T03:12:42;8.10;;;3.90;;
16866;SDS011;8550;52.596;13.320;2023-05-07T03:17:44;7.83;;;4.13;;
16866;SDS011;8550;52.596;13.320;2023-05-07T03:22:46;6.53;;;3.67;;
16866;SDS011;8550;52.596;13.320;2023-05-07T03:27:49;7.47;;;4.38;;
16866;SDS011;8550;52.596;13.320;2023-05-07T03:32:51;7.60;;;3.40;;
16866;SDS011;8550;52.596;13.320;2023-05-07T03:37:53;8.33;;;4.33;;
16866;SDS011;8550;52.596;13.320;2023-05-07T03:42:57;8.88;;;3.70;;
16866;SDS011;8550;52.596;13.320;2023-05-07T03:47:58;7.15;;;3.08;;
16866;SDS011;8550;52.596;13.320;2023-05-07T03:53:00;6.73;;;3.40;;
16866;SDS011;8550;52.596;13.320;2023-05-07T03:58:05;7.18;;;3.83;;
16866;SDS011;8550;52.596;13.320;2023-05-07T04:03:08;7.95;;;3.97;;
16866;SDS011;8550;52.596;13.320;2023-05-07T04:08:10;8.50;;;4.03;;
16866;SDS011;8550;52.596;13.320;2023-05-07T04:13:13;8.60;;;4.18;;
16866;SDS011;8550;52.596;13.320;2023-05-07T04:18:15;7.05;;;3.00;;
16866;SDS011;8550;52.596;13.320;2023-05-07T04:23:17;7.60;;;3.37;;
16866;SDS011;8550;52.596;13.320;2023-05-07T04:28:21;6.97;;;3.60;;
16866;SDS011;8550;52.596;13.320;2023-05-07T04:33:22;9.57;;;4.00;;
16866;SDS011;8550;52.596;13.320;2023-05-07T04:38:24;11.48;;;3.80;;
16866;SDS011;8550;52.596;13.320;2023-05-07T04:43:28;8.43;;;3.43;;
16866;SDS011;8550;52.596;13.320;2023-05-07T04:48:30;6.13;;;3.20;;
16866;SDS011;8550;52.596;13.320;2023-05-07T04:53:32;7.03;;;3.17;;
16866;SDS011;8550;52.596;13.320;2023-05-07T04:58:35;6.77;;;3.13;;
16866;SDS011;8550;52.596;13.320;2023-05-07T05:03:37;8.75;;;3.53;;
16866;SDS011;8550;52.596;13.320;2023-05-07T05:08:39;6.90;;;3.97;;
16866;SDS011;8550;52.596;13.320;2023-05-07T05:13:42;6.13;;;3.00;;
16866;SDS011;8550;52.596;13.320;2023-05-07T05:18:45;6.67;;;3.50;;
16866;SDS011;8550;52.596;13.320;2023-05-07T05:23:47;6.93;;;3.03;;
16866;SDS011;8550;52.596;13.320;2023-05-07T05:28:50;6.95;;;2.90;;
16866;SDS011;8550;52.596;13.320;2023-05-07T05:33:52;5.77;;;2.50;;
16866;SDS011;8550;52.596;13.320;2023-05-07T05:38:55;7.75;;;3.58;;
16866;SDS011;8550;52.596;13.320;2023-05-07T05:43:58;6.20;;;2.40;;
16866;SDS011;8550;52.596;13.320;2023-05-07T05:49:00;6.17;;;2.70;;
16866;SDS011;8550;52.596;13.320;2023-05-07T05:54:03;7.65;;;3.33;;
16866;SDS011;8550;52.596;13.320;2023-05-07T05:59:06;8.00;;;3.55;;
16866;SDS011;8550;52.596;13.320;2023-05-07T06:04:08;7.47;;;3.83;;
16866;SDS011;8550;52.596;13.320;2023-05-07T06:09:10;6.30;;;3.17;;
16866;SDS011;8550;52.596;13.320;2023-05-07T06:14:13;6.10;;;2.92;;
16866;SDS011;8550;52.596;13.320;2023-05-07T06:19:15;6.72;;;2.75;;
16866;SDS011;8550;52.596;13.320;2023-05-07T06:24:23;6.43;;;3.07;;
16866;SDS011;8550;52.596;13.320;2023-05-07T06:29:27;6.03;;;2.92;;
16866;SDS011;8550;52.596;13.320;2023-05-07T06:34:31;6.40;;;2.78;;
16866;SDS011;8550;52.596;13.320;2023-05-07T06:39:33;5.37;;;2.57;;
16866;SDS011;8550;52.596;13.320;2023-05-07T06:44:37;6.45;;;3.00;;
16866;SDS011;8550;52.596;13.320;2023-05-07T06:49:39;6.82;;;2.88;;
16866;SDS011;8550;52.596;13.320;2023-05-07T06:54:41;6.17;;;2.87;;
16866;SDS011;8550;52.596;13.320;2023-05-07T06:59:44;8.87;;;3.53;;
16866;SDS011;8550;52.596;13.320;2023-05-07T07:04:46;7.13;;;2.83;;
16866;SDS011;8550;52.596;13.320;2023-05-07T07:09:49;7.65;;;3.22;;
16866;SDS011;8550;52.596;13.320;2023-05-07T07:14:52;5.37;;;2.70;;
16866;SDS011;8550;52.596;13.320;2023-05-07T07:19:54;5.93;;;3.08;;
16866;SDS011;8550;52.596;13.320;2023-05-07T07:24:57;6.30;;;2.47;;
16866;SDS011;8550;52.596;13.320;2023-05-07T07:30:00;6.20;;;1.90;;
16866;SDS011;8550;52.596;13.320;2023-05-07T07:35:02;4.93;;;2.10;;
16866;SDS011;8550;52.596;13.320;2023-05-07T07:40:05;4.95;;;2.30;;
16866;SDS011;8550;52.596;13.320;2023-05-07T07:45:14;5.90;;;2.60;;
16866;SDS011;8550;52.596;13.320;2023-05-07T07:50:15;5.07;;;2.17;;
16866;SDS011;8550;52.596;13.320;2023-05-07T07:55:19;5.13;;;2.35;;
16866;SDS011;8550;52.596;13.320;2023-05-07T08:00:24;5.88;;;2.17;;
16866;SDS011;8550;52.596;13.320;2023-05-07T08:05:26;5.07;;;1.77;;
16866;SDS011;8550;52.596;13.320;2023-05-07T08:10:28;7.45;;;2.22;;
16866;SDS011;8550;52.596;13.320;2023-05-07T08:15:35;5.55;;;2.42;;
16866;SDS011;8550;52.596;13.320;2023-05-07T08:20:37;4.73;;;1.60;;
16866;SDS011;8550;52.596;13.320;2023-05-07T08:25:39;3.60;;;1.42;;
16866;SDS011;8550;52.596;13.320;2023-05-07T08:30:43;7.82;;;4.15;;
16866;SDS011;8550;52.596;13.320;2023-05-07T08:35:46;4.43;;;1.90;;
16866;SDS011;8550;52.596;13.320;2023-05-07T08:40:48;5.23;;;2.17;;
16866;SDS011;8550;52.596;13.320;2023-05-07T08:45:52;7.95;;;1.92;;
16866;SDS011;8550;52.596;13.320;2023-05-07T08:50:55;6.75;;;1.58;;
16866;SDS011;8550;52.596;13.320;2023-05-07T08:55:57;5.50;;;1.67;;
16866;SDS011;8550;52.596;13.320;2023-05-07T09:01:02;4.22;;;1.95;;
16866;SDS011;8550;52.596;13.320;2023-05-07T09:06:08;5.47;;;1.77;;
16866;SDS011;8550;52.596;13.320;2023-05-07T09:11:10;3.40;;;1.60;;
16866;SDS011;8550;52.596;13.320;2023-05-07T09:16:14;7.03;;;2.08;;
16866;SDS011;8550;52.596;13.320;2023-05-07T09:21:17;5.80;;;1.65;;
16866;SDS011;8550;52.596;13.320;2023-05-07T09:26:20;3.47;;;1.63;;
16866;SDS011;8550;52.596;13.320;2023-05-07T09:31:24;3.70;;;1.67;;
16866;SDS011;8550;52.596;13.320;2023-05-07T09:36:26;3.65;;;1.55;;
16866;SDS011;8550;52.596;13.320;2023-05-07T09:41:29;5.05;;;1.52;;
16866;SDS011;8550;52.596;13.320;2023-05-07T09:46:33;4.10;;;1.50;;
16866;SDS011;8550;52.596;13.320;2023-05-07T09:51:41;5.60;;;1.75;;
16866;SDS011;8550;52.596;13.320;2023-05-07T09:57:02;7.32;;;1.83;;
16866;SDS011;8550;52.596;13.320;2023-05-07T10:02:06;3.87;;;1.60;;
16866;SDS011;8550;52.596;13.320;2023-05-07T10:07:11;3.65;;;1.60;;
16866;SDS011;8550;52.596;13.320;2023-05-07T10:12:15;3.50;;;1.45;;
16866;SDS011;8550;52.596;13.320;2023-05-07T10:17:20;8.13;;;4.13;;
16866;SDS011;8550;52.596;13.320;2023-05-07T10:22:24;3.17;;;1.63;;
16866;SDS011;8550;52.596;13.320;2023-05-07T10:27:27;5.10;;;1.30;;
16866;SDS011;8550;52.596;13.320;2023-05-07T10:32:35;4.80;;;1.67;;
16866;SDS011;8550;52.596;13.320;2023-05-07T10:37:40;3.43;;;1.43;;
16866;SDS011;8550;52.596;13.320;2023-05-07T10:42:55;4.82;;;1.20;;
16866;SDS011;8550;52.596;13.320;2023-05-07T10:48:06;3.13;;;1.23;;
16866;SDS011;8550;52.596;13.320;2023-05-07T10:53:22;3.03;;;1.33;;
16866;SDS011;8550;52.596;13.320;2023-05-07T10:58:26;3.15;;;1.15;;
16866;SDS011;8550;52.596;13.320;2023-05-07T11:03:33;3.50;;;1.50;;
16866;SDS011;8550;52.596;13.320;2023-05-07T11:08:52;2.97;;;1.30;;
16866;SDS011;8550;52.596;13.320;2023-05-07T11:13:55;3.73;;;1.50;;
16866;SDS011;8550;52.596;13.320;2023-05-07T11:18:58;3.03;;;1.23;;
16866;SDS011;8550;52.596;13.320;2023-05-07T11:24:01;3.67;;;1.50;;
16866;SDS011;8550;52.596;13.320;2023-05-07T11:29:08;2.97;;;1.20;;
16866;SDS011;8550;52.596;13.320;2023-05-07T11:34:13;2.92;;;1.40;;
16866;SDS011;8550;52.596;13.320;2023-05-07T11:39:25;2.38;;;1.00;;
16866;SDS011;8550;52.596;13.320;2023-05-07T11:49:53;3.50;;;1.30;;
16866;SDS011;8550;52.596;13.320;2023-05-07T11:54:56;4.13;;;1.38;;
16866;SDS011;8550;52.596;13.320;2023-05-07T12:00:00;3.10;;;1.30;;
16866;SDS011;8550;52.596;13.320;2023-05-07T12:05:05;4.00;;;1.50;;
16866;SDS011;8550;52.596;13.320;2023-05-07T12:10:09;3.50;;;1.35;;
16866;SDS011;8550;52.596;13.320;2023-05-07T12:15:15;4.20;;;1.40;;
16866;SDS011;8550;52.596;13.320;2023-05-07T12:20:18;3.30;;;1.20;;
16866;SDS011;8550;52.596;13.320;2023-05-07T12:25:20;3.30;;;1.15;;
16866;SDS011;8550;52.596;13.320;2023-05-07T12:30:23;3.53;;;1.20;;
16866;SDS011;8550;52.596;13.320;2023-05-07T12:35:29;3.93;;;1.33;;
16866;SDS011;8550;52.596;13.320;2023-05-07T12:40:35;3.38;;;1.38;;
16866;SDS011;8550;52.596;13.320;2023-05-07T12:45:41;3.03;;;1.13;;
16866;SDS011;8550;52.596;13.320;2023-05-07T12:50:44;2.93;;;1.20;;
16866;SDS011;8550;52.596;13.320;2023-05-07T12:55:50;4.00;;;1.40;;
16866;SDS011;8550;52.596;13.320;2023-05-07T13:00:53;2.97;;;1.30;;
16866;SDS011;8550;52.596;13.320;2023-05-07T13:06:00;3.67;;;1.10;;
16866;SDS011;8550;52.596;13.320;2023-05-07T13:11:04;3.70;;;1.10;;
16866;SDS011;8550;52.596;13.320;2023-05-07T13:16:08;3.40;;;1.50;;
16866;SDS011;8550;52.596;13.320;2023-05-07T13:21:12;2.45;;;1.20;;
16866;SDS011;8550;52.596;13.320;2023-05-07T13:26:14;2.87;;;1.27;;
16866;SDS011;8550;52.596;13.320;2023-05-07T13:31:16;5.00;;;1.50;;
16866;SDS011;8550;52.596;13.320;2023-05-07T13:36:19;3.78;;;1.15;;
16866;SDS011;8550;52.596;13.320;2023-05-07T13:41:22;2.83;;;1.10;;
16866;SDS011;8550;52.596;13.320;2023-05-07T13:46:24;2.43;;;1.20;;
16866;SDS011;8550;52.596;13.320;2023-05-07T13:51:27;3.13;;;1.42;;
16866;SDS011;8550;52.596;13.320;2023-05-07T13:56:29;3.38;;;1.30;;
16866;SDS011;8550;52.596;13.320;2023-05-07T14:01:32;2.77;;;1.30;;
16866;SDS011;8550;52.596;13.320;2023-05-07T14:06:35;2.05;;;0.75;;
16866;SDS011;8550;52.596;13.320;2023-05-07T14:11:37;4.38;;;1.10;;
16866;SDS011;8550;52.596;13.320;2023-05-07T14:16:39;2.90;;;1.27;;
16866;SDS011;8550;52.596;13.320;2023-05-07T14:21:43;3.00;;;1.30;;
16866;SDS011;8550;52.596;13.320;2023-05-07T14:26:45;3.33;;;1.55;;
16866;SDS011;8550;52.596;13.320;2023-05-07T14:31:46;3.20;;;1.23;;
16866;SDS011;8550;52.596;13.320;2023-05-07T14:36:50;2.83;;;1.20;;
16866;SDS011;8550;52.596;13.320;2023-05-07T14:41:52;2.83;;;1.38;;
16866;SDS011;8550;52.596;13.320;2023-05-07T14:46:56;4.53;;;1.40;;
16866;SDS011;8550;52.596;13.320;2023-05-07T14:51:59;5.80;;;1.37;;
16866;SDS011;8550;52.596;13.320;2023-05-07T14:57:01;2.75;;;1.48;;
16866;SDS011;8550;52.596;13.320;2023-05-07T15:02:03;2.40;;;0.80;;
16866;SDS011;8550;52.596;13.320;2023-05-07T15:07:08;3.20;;;1.10;;
16866;SDS011;8550;52.596;13.320;2023-05-07T15:12:10;3.45;;;0.90;;
16866;SDS011;8550;52.596;13.320;2023-05-07T15:17:12;2.55;;;1.30;;
16866;SDS011;8550;52.596;13.320;2023-05-07T15:22:17;2.33;;;0.83;;
16866;SDS011;8550;52.596;13.320;2023-05-07T15:27:19;3.50;;;1.03;;
16866;SDS011;8550;52.596;13.320;2023-05-07T15:32:20;2.67;;;1.27;;
16866;SDS011;8550;52.596;13.320;2023-05-07T15:37:24;5.70;;;1.35;;
16866;SDS011;8550;52.596;13.320;2023-05-07T15:42:26;2.87;;;0.80;;
16866;SDS011;8550;52.596;13.320;2023-05-07T15:47:28;2.17;;;0.90;;
16866;SDS011;8550;52.596;13.320;2023-05-07T15:52:36;6.07;;;2.72;;
16866;SDS011;8550;52.596;13.320;2023-05-07T15:57:38;2.47;;;0.90;;
16866;SDS011;8550;52.596;13.320;2023-05-07T16:02:40;3.42;;;1.00;;
16866;SDS011;8550;52.596;13.320;2023-05-07T16:07:43;2.45;;;0.93;;
16866;SDS011;8550;52.596;13.320;2023-05-07T16:12:45;2.63;;;0.83;;
16866;SDS011;8550;52.596;13.320;2023-05-07T16:17:47;3.37;;;1.53;;
16866;SDS011;8550;52.596;13.320;2023-05-07T16:22:52;4.13;;;1.48;;
16866;SDS011;8550;52.596;13.320;2023-05-07T16:27:54;4.20;;;1.30;;
16866;SDS011;8550;52.596;13.320;2023-05-07T16:32:56;2.17;;;0.77;;
16866;SDS011;8550;52.596;13.320;2023-05-07T16:38:00;2.47;;;1.00;;
16866;SDS011;8550;52.596;13.320;2023-05-07T16:43:08;2.90;;;1.10;;
16866;SDS011;8550;52.596;13.320;2023-05-07T16:48:11;5.13;;;1.10;;
16866;SDS011;8550;52.596;13.320;2023-05-07T16:53:14;2.45;;;1.15;;
16866;SDS011;8550;52.596;13.320;2023-05-07T16:58:16;3.15;;;1.20;;
16866;SDS011;8550;52.596;13.320;2023-05-07T17:03:20;4.20;;;1.20;;
16866;SDS011;8550;52.596;13.320;2023-05-07T17:08:24;3.47;;;1.50;;
16866;SDS011;8550;52.596;13.320;2023-05-07T17:13:26;3.92;;;1.63;;
16866;SDS011;8550;52.596;13.320;2023-05-07T17:18:29;5.35;;;1.50;;
16866;SDS011;8550;52.596;13.320;2023-05-07T17:23:32;3.67;;;1.23;;
16866;SDS011;8550;52.596;13.320;2023-05-07T17:28:35;4.07;;;1.05;;
16866;SDS011;8550;52.596;13.320;2023-05-07T17:33:37;2.95;;;0.90;;
16866;SDS011;8550;52.596;13.320;2023-05-07T17:38:40;3.63;;;1.40;;
16866;SDS011;8550;52.596;13.320;2023-05-07T17:43:42;4.05;;;1.38;;
16866;SDS011;8550;52.596;13.320;2023-05-07T17:48:44;3.58;;;1.35;;
16866;SDS011;8550;52.596;13.320;2023-05-07T17:53:47;4.27;;;1.10;;
16866;SDS011;8550;52.596;13.320;2023-05-07T17:58:49;3.07;;;1.23;;
16866;SDS011;8550;52.596;13.320;2023-05-07T18:03:53;3.80;;;1.48;;
16866;SDS011;8550;52.596;13.320;2023-05-07T18:08:56;3.42;;;1.20;;
16866;SDS011;8550;52.596;13.320;2023-05-07T18:13:58;3.10;;;1.27;;
16866;SDS011;8550;52.596;13.320;2023-05-07T18:19:00;2.65;;;1.10;;
16866;SDS011;8550;52.596;13.320;2023-05-07T18:24:04;2.60;;;0.98;;
16866;SDS011;8550;52.596;13.320;2023-05-07T18:29:06;2.87;;;0.87;;
16866;SDS011;8550;52.596;13.320;2023-05-07T18:34:08;2.63;;;0.85;;
16866;SDS011;8550;52.596;13.320;2023-05-07T18:39:11;4.82;;;1.23;;
16866;SDS011;8550;52.596;13.320;2023-05-07T18:44:13;4.33;;;1.70;;
16866;SDS011;8550;52.596;13.320;2023-05-07T18:49:15;4.30;;;1.40;;
16866;SDS011;8550;52.596;13.320;2023-05-07T18:54:19;3.30;;;1.20;;
16866;SDS011;8550;52.596;13.320;2023-05-07T18:59:20;2.42;;;0.82;;
16866;SDS011;8550;52.596;13.320;2023-05-07T19:04:22;3.10;;;1.07;;
16866;SDS011;8550;52.596;13.320;2023-05-07T19:09:26;2.97;;;1.23;;
16866;SDS011;8550;52.596;13.320;2023-05-07T19:14:28;2.22;;;0.80;;
16866;SDS011;8550;52.596;13.320;2023-05-07T19:19:30;3.00;;;1.20;;
16866;SDS011;8550;52.596;13.320;2023-05-07T19:24:35;3.05;;;1.20;;
16866;SDS011;8550;52.596;13.320;2023-05-07T19:29:37;3.17;;;1.23;;
16866;SDS011;8550;52.596;13.320;2023-05-07T19:34:40;3.30;;;0.97;;
16866;SDS011;8550;52.596;13.320;2023-05-07T19:39:43;3.67;;;1.63;;
16866;SDS011;8550;52.596;13.320;2023-05-07T19:44:45;4.35;;;1.70;;
16866;SDS011;8550;52.596;13.320;2023-05-07T19:49:47;4.32;;;1.20;;
16866;SDS011;8550;52.596;13.320;2023-05-07T19:54:50;3.50;;;1.20;;
16866;SDS011;8550;52.596;13.320;2023-05-07T19:59:53;4.47;;;1.33;;
16866;SDS011;8550;52.596;13.320;2023-05-07T20:04:55;3.05;;;1.20;;
16866;SDS011;8550;52.596;13.320;2023-05-07T20:09:59;3.00;;;1.20;;
16866;SDS011;8550;52.596;13.320;2023-05-07T20:15:00;3.53;;;1.30;;
16866;SDS011;8550;52.596;13.320;2023-05-07T20:20:03;6.65;;;1.80;;
16866;SDS011;8550;52.596;13.320;2023-05-07T20:25:08;3.30;;;1.60;;
16866;SDS011;8550;52.596;13.320;2023-05-07T20:30:12;3.73;;;1.30;;
16866;SDS011;8550;52.596;13.320;2023-05-07T20:35:14;3.70;;;1.40;;
16866;SDS011;8550;52.596;13.320;2023-05-07T20:40:18;3.40;;;1.10;;
16866;SDS011;8550;52.596;13.320;2023-05-07T20:45:20;3.87;;;1.50;;
16866;SDS011;8550;52.596;13.320;2023-05-07T20:50:22;4.40;;;1.70;;
16866;SDS011;8550;52.596;13.320;2023-05-07T20:55:27;5.43;;;1.83;;
16866;SDS011;8550;52.596;13.320;2023-05-07T21:00:29;5.37;;;2.50;;
16866;SDS011;8550;52.596;13.320;2023-05-07T21:05:31;3.97;;;1.52;;
16866;SDS011;8550;52.596;13.320;2023-05-07T21:10:34;4.95;;;1.90;;
16866;SDS011;8550;52.596;13.320;2023-05-07T21:15:36;5.10;;;2.30;;
16866;SDS011;8550;52.596;13.320;2023-05-07T21:20:38;4.20;;;2.40;;
16866;SDS011;8550;52.596;13.320;2023-05-07T21:25:41;5.70;;;1.65;;
16866;SDS011;8550;52.596;13.320;2023-05-07T21:30:46;5.28;;;2.28;;
16866;SDS011;8550;52.596;13.320;2023-05-07T21:35:48;5.63;;;1.67;;
16866;SDS011;8550;52.596;13.320;2023-05-07T21:40:51;4.47;;;2.13;;
16866;SDS011;8550;52.596;13.320;2023-05-07T21:45:53;6.82;;;2.08;;
16866;SDS011;8550;52.596;13.320;2023-05-07T21:50:58;5.10;;;2.27;;
16866;SDS011;8550;52.596;13.320;2023-05-07T21:56:03;5.72;;;2.40;;
16866;SDS011;8550;52.596;13.320;2023-05-07T22:01:05;10.70;;;2.95;;
16866;SDS011;8550;52.596;13.320;2023-05-07T22:06:11;7.63;;;3.70;;
16866;SDS011;8550;52.596;13.320;2023-05-07T22:11:15;5.93;;;2.67;;
16866;SDS011;8550;52.596;13.320;2023-05-07T22:16:17;6.28;;;2.85;;
16866;SDS011;8550;52.596;13.320;2023-05-07T22:21:20;6.85;;;3.00;;
16866;SDS011;8550;52.596;13.320;2023-05-07T22:26:23;5.97;;;2.60;;
16866;SDS011;8550;52.596;13.320;2023-05-07T22:31:26;4.95;;;2.58;;
16866;SDS011;8550;52.596;13.320;2023-05-07T22:36:28;4.63;;;2.13;;
16866;SDS011;8550;52.596;13.320;2023-05-07T22:41:33;7.13;;;2.57;;
16866;SDS011;8550;52.596;13.320;2023-05-07T22:46:35;6.28;;;3.00;;
16866;SDS011;8550;52.596;13.320;2023-05-07T22:51:37;5.53;;;2.25;;
16866;SDS011;8550;52.596;13.320;2023-05-07T22:56:41;6.30;;;2.50;;
16866;SDS011;8550;52.596;13.320;2023-05-07T23:01:43;5.53;;;2.67;;
16866;SDS011;8550;52.596;13.320;2023-05-07T23:06:45;5.88;;;2.35;;
16866;SDS011;8550;52.596;13.320;2023-05-07T23:11:48;5.55;;;2.47;;
16866;SDS011;8550;52.596;13.320;2023-05-07T23:16:50;5.37;;;2.27;;
16866;SDS011;8550;52.596;13.320;2023-05-07T23:21:52;5.00;;;2.47;;
16866;SDS011;8550;52.596;13.320;2023-05-07T23:26:56;4.93;;;2.10;;
16866;SDS011;8550;52.596;13.320;2023-05-07T23:31:58;4.43;;;2.00;;
16866;SDS011;8550;52.596;13.320;2023-05-07T23:37:00;5.53;;;2.25;;
16866;SDS011;8550;52.596;13.320;2023-05-07T23:42:03;5.45;;;2.60;;
16866;SDS011;8550;52.596;13.320;2023-05-07T23:47:05;5.30;;;2.37;;
16866;SDS011;8550;52.596;13.320;2023-05-07T23:52:09;5.73;;;2.30;;
16866;SDS011;8550;52.596;13.320;2023-05-07T23:57:12;6.38;;;2.53;;
